createdAt,value
2019-05-07T00:01:13.900Z,23.32
2019-05-07T00:03:42.813Z,20.37
2019-05-07T00:06:12.389Z,22.42
2019-05-07T00:08:44.696Z,21.70
2019-05-07T00:11:12.619Z,23.77
2019-05-07T00:13:44.125Z,24.77
2019-05-07T00:16:12.794Z,24.18
2019-05-07T00:18:42.886Z,25.17
2019-05-07T00:21:12.583Z,26.82
2019-05-07T00:23:43.198Z,24.23
2019-05-07T00:26:13.201Z,24.15
2019-05-07T00:28:43.174Z,28.45
2019-05-07T00:31:12.462Z,25.40
2019-05-07T00:33:43.242Z,23.35
2019-05-07T00:36:32.405Z,24.98
2019-05-07T00:39:12.994Z,25.52
2019-05-07T00:41:48.288Z,23.83
2019-05-07T00:44:17.662Z,27.55
2019-05-07T00:46:46.555Z,25.12
2019-05-07T00:49:15.515Z,26.10
2019-05-07T00:51:44.698Z,25.37
2019-05-07T00:54:13.712Z,23.27
2019-05-07T00:56:43.899Z,24.87
2019-05-07T00:59:13.199Z,23.65
2019-05-07T01:01:43.279Z,22.87
2019-05-07T01:04:12.625Z,24.32
2019-05-07T01:06:42.406Z,23.60
2019-05-07T01:09:12.267Z,21.57
2019-05-07T01:11:42.957Z,23.45
2019-05-07T01:14:12.419Z,22.87
2019-05-07T01:16:42.114Z,21.83
2019-05-07T01:19:12.566Z,23.80
2019-05-07T01:21:43.241Z,21.85
2019-05-07T01:24:12.366Z,22.32
2019-05-07T01:26:42.547Z,21.68
2019-05-07T01:29:12.853Z,22.25
2019-05-07T01:31:52.594Z,22.65
2019-05-07T01:34:37.242Z,23.22
2019-05-07T01:37:06.894Z,22.13
2019-05-07T01:39:35.674Z,22.52
2019-05-07T01:42:04.715Z,23.90
2019-05-07T01:44:33.651Z,24.27
2019-05-07T01:47:02.903Z,23.70
2019-05-07T01:49:33.121Z,23.30
2019-05-07T01:52:02.697Z,22.77
2019-05-07T01:54:33.214Z,24.43
2019-05-07T01:57:02.845Z,23.10
2019-05-07T01:59:32.266Z,23.10
2019-05-07T02:02:08.000Z,22.15
2019-05-07T02:05:03.243Z,24.92
2019-05-07T02:07:36.419Z,24.00
2019-05-07T02:10:16.131Z,24.55
2019-05-07T02:12:44.967Z,25.70
2019-05-07T02:15:14.062Z,25.82
2019-05-07T02:17:43.092Z,25.88
2019-05-07T02:20:13.039Z,26.33
2019-05-07T02:22:42.790Z,25.68
2019-05-07T02:25:12.643Z,25.65
2019-05-07T02:27:42.234Z,26.73
2019-05-07T02:30:14.426Z,27.20
2019-05-07T02:32:43.338Z,26.27
2019-05-07T02:35:13.695Z,25.85
2019-05-07T02:37:52.509Z,25.52
2019-05-07T02:40:34.054Z,24.07
2019-05-07T02:43:03.193Z,26.80
2019-05-07T02:45:53.604Z,26.87
2019-05-07T02:48:25.283Z,26.73
2019-05-07T02:51:04.077Z,25.60
2019-05-07T02:53:46.146Z,26.12
2019-05-07T02:56:15.008Z,27.55
2019-05-07T02:58:43.870Z,27.75
2019-05-07T03:01:13.855Z,23.38
2019-05-07T03:03:44.884Z,33.00
2019-05-07T03:06:13.857Z,28.62
2019-05-07T03:08:43.940Z,29.25
2019-05-07T03:11:14.320Z,31.42
2019-05-07T03:13:43.582Z,29.15
2019-05-07T03:16:13.285Z,30.02
2019-05-07T03:18:43.831Z,29.07
2019-05-07T03:21:15.898Z,27.15
2019-05-07T03:24:03.514Z,26.75
2019-05-07T03:26:35.911Z,29.35
2019-05-07T03:29:08.467Z,26.95
2019-05-07T03:31:47.910Z,27.62
2019-05-07T03:34:37.269Z,28.98
2019-05-07T03:37:07.939Z,33.05
2019-05-07T03:39:36.916Z,29.72
2019-05-07T03:42:05.875Z,25.92
2019-05-07T03:44:44.505Z,29.37
2019-05-07T03:47:17.201Z,33.80
2019-05-07T03:49:46.079Z,34.05
2019-05-07T03:52:14.871Z,34.05
2019-05-07T03:54:43.881Z,31.87
2019-05-07T03:57:15.803Z,29.67
2019-05-07T03:59:43.729Z,33.85
2019-05-07T04:02:14.187Z,29.90
2019-05-07T04:04:43.539Z,30.00
2019-05-07T04:07:13.871Z,34.60
2019-05-07T04:09:43.735Z,30.20
2019-05-07T04:12:13.283Z,34.38
2019-05-07T04:14:43.209Z,34.00
2019-05-07T04:17:17.599Z,32.70
2019-05-07T04:19:44.064Z,36.98
2019-05-07T04:22:13.791Z,35.58
2019-05-07T04:24:53.182Z,35.17
2019-05-07T04:27:29.445Z,37.38
2019-05-07T04:29:58.294Z,33.47
2019-05-07T04:32:33.594Z,33.15
2019-05-07T04:35:09.151Z,37.78
2019-05-07T04:37:37.927Z,32.38
2019-05-07T04:40:06.956Z,33.00
2019-05-07T04:42:35.747Z,38.78
2019-05-07T04:45:04.773Z,37.95
2019-05-07T04:47:42.522Z,36.33
2019-05-07T04:50:04.588Z,36.90
2019-05-07T04:52:35.840Z,37.05
2019-05-07T04:55:05.571Z,36.70
2019-05-07T04:57:34.911Z,38.08
2019-05-07T05:00:04.859Z,37.78
2019-05-07T05:02:44.758Z,34.70
2019-05-07T05:05:14.401Z,32.58
2019-05-07T05:07:43.478Z,31.33
2019-05-07T05:10:13.405Z,35.45
2019-05-07T05:12:42.984Z,33.83
2019-05-07T05:15:12.760Z,33.92
2019-05-07T05:17:50.407Z,30.15
2019-05-07T05:20:13.273Z,34.55
2019-05-07T05:23:12.104Z,32.73
2019-05-07T05:25:43.127Z,32.88
2019-05-07T05:28:12.492Z,33.30
2019-05-07T05:30:48.694Z,33.10
2019-05-07T05:33:17.550Z,38.25
2019-05-07T05:35:46.379Z,31.60
2019-05-07T05:38:15.175Z,30.48
2019-05-07T05:40:44.015Z,33.80
2019-05-07T05:43:32.109Z,29.50
2019-05-07T05:46:02.844Z,30.60
2019-05-07T05:48:33.334Z,31.55
2019-05-07T05:51:22.584Z,29.65
2019-05-07T05:53:58.485Z,31.80
2019-05-07T05:56:43.161Z,32.08
2019-05-07T05:59:43.579Z,32.58
2019-05-07T06:02:23.062Z,31.68
2019-05-07T06:05:05.473Z,30.20
2019-05-07T06:07:38.595Z,33.13
2019-05-07T06:10:22.301Z,31.12
2019-05-07T06:12:55.739Z,32.38
2019-05-07T06:15:46.638Z,31.80
2019-05-07T06:18:41.745Z,31.93
2019-05-07T06:21:38.666Z,31.50
2019-05-07T06:24:11.819Z,33.28
2019-05-07T06:26:42.459Z,32.17
2019-05-07T06:29:11.917Z,31.37
2019-05-07T06:31:42.193Z,30.88
2019-05-07T06:34:12.444Z,30.02
2019-05-07T06:36:42.390Z,32.20
2019-05-07T06:39:26.212Z,32.50
2019-05-07T06:42:17.327Z,30.23
2019-05-07T06:45:02.914Z,30.23
2019-05-07T06:47:32.013Z,29.40
2019-05-07T06:50:03.092Z,29.85
2019-05-07T06:52:31.999Z,28.90
2019-05-07T06:55:03.173Z,28.50
2019-05-07T06:57:33.045Z,27.60
2019-05-07T07:00:04.504Z,26.77
2019-05-07T07:02:52.475Z,24.70
2019-05-07T07:05:39.525Z,24.75
2019-05-07T07:08:26.420Z,25.50
2019-05-07T07:11:26.388Z,24.20
2019-05-07T07:13:55.314Z,24.57
2019-05-07T07:16:24.232Z,23.25
2019-05-07T07:18:55.617Z,22.27
2019-05-07T07:21:23.666Z,25.23
2019-05-07T07:23:52.493Z,23.73
2019-05-07T07:26:22.054Z,26.97
2019-05-07T07:28:52.502Z,23.98
2019-05-07T07:31:50.007Z,23.30
2019-05-07T07:34:19.205Z,22.75
2019-05-07T07:37:05.349Z,22.40
2019-05-07T07:39:26.063Z,21.25
2019-05-07T07:41:57.282Z,18.95
2019-05-07T07:44:26.150Z,18.67
2019-05-07T07:46:54.927Z,19.82
2019-05-07T07:49:23.739Z,20.75
2019-05-07T07:51:52.739Z,17.82
2019-05-07T07:54:22.706Z,15.67
2019-05-07T07:56:58.534Z,17.98
2019-05-07T07:59:45.047Z,15.10
2019-05-07T08:02:19.190Z,18.52
2019-05-07T08:04:47.946Z,15.13
2019-05-07T08:07:16.798Z,14.83
2019-05-07T08:09:45.646Z,15.78
2019-05-07T08:12:14.498Z,15.20
2019-05-07T08:14:43.430Z,15.15
2019-05-07T08:17:12.985Z,15.28
2019-05-07T08:19:43.073Z,12.58
2019-05-07T08:22:12.249Z,11.48
2019-05-07T08:24:42.564Z,9.68
2019-05-07T08:27:12.894Z,9.90
2019-05-07T08:29:43.001Z,8.35
2019-05-07T08:32:34.158Z,10.40
2019-05-07T08:35:14.305Z,14.28
2019-05-07T08:37:43.211Z,11.78
2019-05-07T08:40:12.945Z,12.75
2019-05-07T08:42:42.041Z,11.30
2019-05-07T08:45:36.160Z,12.80
2019-05-07T08:48:09.219Z,11.95
2019-05-07T08:50:38.146Z,10.32
2019-05-07T08:53:07.030Z,9.98
2019-05-07T08:55:35.870Z,10.68
2019-05-07T08:58:04.918Z,10.60
2019-05-07T09:00:33.798Z,10.78
2019-05-07T09:03:02.558Z,8.38
2019-05-07T09:05:32.347Z,10.05
2019-05-07T09:08:02.232Z,8.93
2019-05-07T09:10:32.556Z,9.65
2019-05-07T09:13:02.778Z,8.83
2019-05-07T09:15:32.144Z,8.70
2019-05-07T09:18:02.054Z,9.88
2019-05-07T09:20:32.156Z,8.38
2019-05-07T09:23:02.237Z,9.28
2019-05-07T09:25:34.344Z,8.13
2019-05-07T09:28:03.283Z,9.95
2019-05-07T09:31:03.336Z,10.32
2019-05-07T09:33:35.790Z,11.95
2019-05-07T09:36:06.705Z,10.60
2019-05-07T09:38:35.485Z,10.43
2019-05-07T09:41:04.404Z,12.37
2019-05-07T09:43:33.186Z,10.88
2019-05-07T09:46:02.793Z,12.50
2019-05-07T09:48:33.628Z,11.12
2019-05-07T09:51:02.388Z,9.95
2019-05-07T09:53:32.130Z,10.85
2019-05-07T09:56:02.127Z,12.10
2019-05-07T09:58:36.524Z,10.72
2019-05-07T10:01:02.177Z,11.00
2019-05-07T10:03:32.393Z,10.88
2019-05-07T10:06:02.213Z,11.80
2019-05-07T10:08:31.930Z,11.48
2019-05-07T10:11:02.717Z,11.63
2019-05-07T10:13:36.348Z,13.33
2019-05-07T10:16:07.673Z,10.47
2019-05-07T10:18:35.955Z,11.50
2019-05-07T10:21:05.035Z,11.70
2019-05-07T10:23:34.110Z,10.72
2019-05-07T10:26:04.131Z,10.80
2019-05-07T10:28:33.359Z,12.07
2019-05-07T10:31:02.283Z,9.48
2019-05-07T10:33:31.955Z,12.15
2019-05-07T10:36:02.077Z,12.35
2019-05-07T10:38:31.069Z,11.75
2019-05-07T10:41:02.640Z,10.95
2019-05-07T10:43:32.711Z,12.10
2019-05-07T10:46:21.057Z,10.72
2019-05-07T10:49:12.389Z,10.53
2019-05-07T10:51:42.541Z,9.93
2019-05-07T10:54:12.583Z,11.80
2019-05-07T10:56:41.952Z,11.28
2019-05-07T10:59:12.239Z,11.57
2019-05-07T11:01:46.950Z,9.93
2019-05-07T11:04:15.838Z,10.70
2019-05-07T11:06:44.672Z,10.25
2019-05-07T11:09:13.500Z,11.18
2019-05-07T11:11:42.585Z,11.73
2019-05-07T11:14:12.317Z,11.53
2019-05-07T11:16:52.181Z,9.78
2019-05-07T11:19:22.092Z,10.25
2019-05-07T11:21:52.114Z,9.85
2019-05-07T11:24:20.979Z,9.48
2019-05-07T11:26:49.734Z,8.90
2019-05-07T11:29:18.539Z,9.63
2019-05-07T11:31:47.823Z,9.43
2019-05-07T11:34:16.870Z,11.12
2019-05-07T11:36:45.654Z,11.78
2019-05-07T11:39:14.434Z,9.48
2019-05-07T11:42:02.395Z,12.73
2019-05-07T11:44:32.178Z,9.85
2019-05-07T11:47:22.548Z,11.55
2019-05-07T11:50:11.941Z,11.97
2019-05-07T11:52:43.166Z,11.53
2019-05-07T11:55:12.186Z,9.28
2019-05-07T11:57:44.222Z,10.05
2019-05-07T12:00:22.366Z,9.78
2019-05-07T12:02:51.915Z,11.10
2019-05-07T12:05:22.666Z,11.80
2019-05-07T12:07:52.434Z,10.03
2019-05-07T12:10:22.285Z,10.08
2019-05-07T12:12:52.131Z,10.88
2019-05-07T12:15:21.743Z,11.55
2019-05-07T12:17:52.163Z,11.93
2019-05-07T12:20:22.099Z,10.78
2019-05-07T12:22:52.188Z,12.60
2019-05-07T12:25:21.866Z,11.63
2019-05-07T12:27:53.398Z,12.33
2019-05-07T12:30:38.050Z,12.50
2019-05-07T12:33:16.680Z,11.08
2019-05-07T12:35:45.671Z,10.85
2019-05-07T12:38:14.703Z,11.78
2019-05-07T12:40:43.590Z,13.00
2019-05-07T12:43:12.382Z,11.10
2019-05-07T12:45:42.116Z,11.93
2019-05-07T12:48:12.195Z,11.33
2019-05-07T12:50:43.176Z,13.35
2019-05-07T12:53:22.452Z,12.03
2019-05-07T12:55:55.357Z,13.38
2019-05-07T12:58:24.202Z,11.22
2019-05-07T13:01:03.974Z,11.08
2019-05-07T13:03:42.773Z,10.55
2019-05-07T13:06:11.859Z,13.20
2019-05-07T13:08:41.963Z,11.68
2019-05-07T13:11:13.103Z,14.70
2019-05-07T13:13:42.338Z,15.28
2019-05-07T13:16:12.772Z,12.43
2019-05-07T13:18:42.319Z,12.73
2019-05-07T13:21:11.938Z,11.48
2019-05-07T13:23:42.166Z,10.30
2019-05-07T13:26:11.233Z,11.30
2019-05-07T13:28:42.025Z,12.63
2019-05-07T13:31:12.503Z,10.63
2019-05-07T13:33:42.123Z,11.43
2019-05-07T13:36:12.354Z,12.78
2019-05-07T13:38:51.762Z,10.43
2019-05-07T13:41:32.110Z,10.68
2019-05-07T13:44:12.345Z,10.05
2019-05-07T13:46:44.794Z,15.63
2019-05-07T13:49:13.802Z,11.30
2019-05-07T13:51:42.730Z,13.93
2019-05-07T13:54:12.832Z,10.83
2019-05-07T13:56:42.037Z,13.05
2019-05-07T13:59:13.173Z,13.08
2019-05-07T14:02:04.512Z,12.65
2019-05-07T14:04:32.625Z,12.10
2019-05-07T14:07:02.198Z,12.80
2019-05-07T14:09:32.631Z,13.18
2019-05-07T14:12:02.085Z,10.55
2019-05-07T14:14:31.872Z,12.65
2019-05-07T14:17:02.313Z,12.07
2019-05-07T14:19:32.739Z,12.30
2019-05-07T14:22:14.706Z,11.22
2019-05-07T14:24:32.793Z,13.30
2019-05-07T14:27:02.096Z,11.22
2019-05-07T14:29:32.038Z,11.63
2019-05-07T14:32:20.280Z,11.05
2019-05-07T14:35:07.214Z,12.28
2019-05-07T14:37:41.732Z,11.53
2019-05-07T14:40:12.915Z,11.73
2019-05-07T14:42:46.610Z,12.88
2019-05-07T14:45:15.514Z,11.88
2019-05-07T14:47:44.883Z,11.57
2019-05-07T14:50:14.606Z,11.73
2019-05-07T14:52:43.723Z,10.60
2019-05-07T14:55:13.822Z,12.95
2019-05-07T14:57:42.747Z,13.47
2019-05-07T15:00:13.202Z,12.23
2019-05-07T15:02:42.544Z,11.78
2019-05-07T15:05:12.097Z,14.38
2019-05-07T15:07:41.748Z,11.48
2019-05-07T15:10:11.101Z,12.70
2019-05-07T15:12:42.518Z,13.13
2019-05-07T15:15:12.706Z,12.93
2019-05-07T15:17:52.359Z,12.03
2019-05-07T15:20:22.608Z,13.25
2019-05-07T15:22:57.905Z,13.20
2019-05-07T15:25:26.851Z,15.03
2019-05-07T15:27:56.396Z,14.00
2019-05-07T15:30:26.810Z,12.20
2019-05-07T15:32:55.655Z,12.33
2019-05-07T15:35:24.527Z,14.55
2019-05-07T15:37:53.867Z,11.08
2019-05-07T15:40:23.055Z,15.57
2019-05-07T15:42:52.473Z,10.85
2019-05-07T15:45:21.794Z,13.05
2019-05-07T15:47:52.968Z,12.70
2019-05-07T15:50:24.395Z,12.37
2019-05-07T15:53:08.654Z,15.13
2019-05-07T15:55:37.507Z,13.28
2019-05-07T15:58:06.486Z,12.18
2019-05-07T16:00:36.582Z,13.55
2019-05-07T16:03:12.070Z,12.43
2019-05-07T16:05:42.508Z,13.58
2019-05-07T16:08:13.439Z,12.45
2019-05-07T16:10:42.875Z,12.73
2019-05-07T16:13:13.857Z,13.35
2019-05-07T16:15:42.895Z,12.98
2019-05-07T16:18:15.571Z,12.50
2019-05-07T16:20:44.604Z,14.10
2019-05-07T16:23:17.253Z,12.33
2019-05-07T16:25:44.098Z,11.40
2019-05-07T16:28:13.009Z,12.78
2019-05-07T16:30:42.662Z,13.65
2019-05-07T16:33:12.795Z,12.35
2019-05-07T16:35:42.524Z,12.65
2019-05-07T16:38:14.531Z,12.03
2019-05-07T16:40:43.071Z,11.90
2019-05-07T16:43:12.156Z,12.68
2019-05-07T16:45:42.463Z,12.33
2019-05-07T16:48:11.974Z,12.55
2019-05-07T16:50:40.965Z,12.78
2019-05-07T16:53:12.078Z,14.33
2019-05-07T16:55:40.310Z,12.47
2019-05-07T16:58:20.608Z,11.25
2019-05-07T17:00:52.846Z,13.50
2019-05-07T17:03:25.922Z,13.72
2019-05-07T17:05:54.812Z,15.55
2019-05-07T17:08:58.151Z,14.98
2019-05-07T17:11:26.965Z,14.05
2019-05-07T17:13:55.810Z,13.38
2019-05-07T17:16:24.691Z,13.93
2019-05-07T17:18:53.623Z,14.68
2019-05-07T17:21:22.606Z,13.68
2019-05-07T17:23:51.872Z,15.03
2019-05-07T17:26:23.038Z,13.93
2019-05-07T17:28:52.079Z,13.50
2019-05-07T17:31:22.911Z,15.25
2019-05-07T17:33:51.700Z,14.20
2019-05-07T17:36:22.388Z,14.10
2019-05-07T17:38:51.970Z,13.50
2019-05-07T17:41:24.778Z,13.68
2019-05-07T17:43:52.122Z,14.38
2019-05-07T17:46:21.718Z,13.10
2019-05-07T17:48:52.403Z,15.80
2019-05-07T17:51:42.083Z,13.80
2019-05-07T17:54:13.134Z,14.83
2019-05-07T17:56:42.507Z,14.55
2019-05-07T17:59:12.204Z,15.00
2019-05-07T18:02:01.768Z,15.33
2019-05-07T18:04:33.766Z,16.12
2019-05-07T18:07:03.053Z,13.45
2019-05-07T18:09:32.130Z,13.75
2019-05-07T18:12:01.006Z,14.87
2019-05-07T18:14:31.981Z,16.20
2019-05-07T18:17:16.282Z,16.32
2019-05-07T18:19:49.526Z,15.10
2019-05-07T18:22:18.495Z,13.50
2019-05-07T18:24:48.210Z,16.73
2019-05-07T18:27:25.197Z,13.53
2019-05-07T18:29:54.042Z,15.23
2019-05-07T18:32:27.380Z,15.10
2019-05-07T18:34:56.142Z,14.55
2019-05-07T18:37:25.083Z,15.60
2019-05-07T18:39:53.901Z,14.18
2019-05-07T18:42:22.786Z,14.13
2019-05-07T18:44:52.407Z,15.58
2019-05-07T18:47:22.531Z,13.68
2019-05-07T18:49:51.997Z,15.18
2019-05-07T18:52:22.861Z,16.62
2019-05-07T18:54:52.147Z,17.70
2019-05-07T18:57:22.216Z,16.12
2019-05-07T18:59:53.106Z,16.05
2019-05-07T19:02:22.643Z,15.20
2019-05-07T19:04:51.982Z,15.10
2019-05-07T19:07:22.983Z,16.62
2019-05-07T19:09:51.743Z,16.23
2019-05-07T19:12:23.143Z,16.87
2019-05-07T19:14:52.034Z,17.05
2019-05-07T19:17:21.914Z,15.35
2019-05-07T19:19:52.510Z,18.80
2019-05-07T19:22:22.193Z,18.20
2019-05-07T19:24:52.638Z,19.48
2019-05-07T19:27:22.094Z,17.98
2019-05-07T19:29:51.047Z,20.10
2019-05-07T19:32:20.163Z,17.57
2019-05-07T19:34:49.143Z,17.57
2019-05-07T19:37:27.165Z,18.45
2019-05-07T19:39:56.035Z,18.62
2019-05-07T19:42:24.840Z,18.50
2019-05-07T19:44:53.624Z,21.42
2019-05-07T19:47:23.308Z,18.63
2019-05-07T19:49:52.520Z,17.80
2019-05-07T19:52:23.139Z,19.48
2019-05-07T19:55:00.932Z,19.15
2019-05-07T19:57:27.185Z,23.10
2019-05-07T19:59:56.571Z,23.38
2019-05-07T20:02:28.642Z,20.88
2019-05-07T20:04:57.451Z,20.80
2019-05-07T20:07:26.319Z,19.92
2019-05-07T20:09:55.155Z,20.20
2019-05-07T20:12:24.062Z,22.15
2019-05-07T20:14:52.870Z,20.15
2019-05-07T20:17:22.212Z,23.62
2019-05-07T20:19:52.724Z,21.10
2019-05-07T20:22:22.220Z,22.48
2019-05-07T20:25:11.576Z,18.70
2019-05-07T20:27:28.395Z,22.65
2019-05-07T20:29:57.175Z,21.23
2019-05-07T20:32:26.104Z,19.98
2019-05-07T20:34:57.077Z,24.77
2019-05-07T20:37:25.971Z,21.62
2019-05-07T20:39:54.746Z,23.10
2019-05-07T20:42:26.116Z,22.00
2019-05-07T20:44:54.311Z,20.10
2019-05-07T20:47:23.187Z,20.48
2019-05-07T20:49:52.058Z,24.50
2019-05-07T20:52:22.794Z,23.60
2019-05-07T20:55:09.393Z,20.60
2019-05-07T20:57:42.658Z,19.77
2019-05-07T21:00:22.732Z,21.65
2019-05-07T21:03:12.547Z,22.98
2019-05-07T21:05:42.283Z,21.55
2019-05-07T21:08:11.904Z,21.07
2019-05-07T21:10:42.601Z,20.40
2019-05-07T21:13:26.994Z,21.35
2019-05-07T21:15:42.351Z,22.73
2019-05-07T21:18:12.337Z,21.73
2019-05-07T21:20:42.620Z,20.82
2019-05-07T21:23:12.342Z,20.27
2019-05-07T21:25:45.207Z,20.10
2019-05-07T21:28:12.970Z,20.77
2019-05-07T21:30:42.721Z,21.65
2019-05-07T21:33:12.091Z,20.45
2019-05-07T21:35:42.963Z,20.35
2019-05-07T21:38:12.700Z,21.35
2019-05-07T21:40:42.857Z,19.67
2019-05-07T21:43:14.167Z,22.70
2019-05-07T21:45:43.427Z,20.90
2019-05-07T21:48:13.763Z,21.87
2019-05-07T21:50:42.862Z,18.48
2019-05-07T21:53:26.411Z,20.75
2019-05-07T21:56:04.772Z,18.87
2019-05-07T21:58:36.614Z,19.85
2019-05-07T22:01:08.800Z,18.73
2019-05-07T22:03:37.881Z,19.65
2019-05-07T22:06:09.681Z,18.75
2019-05-07T22:08:37.807Z,17.60
2019-05-07T22:11:06.676Z,18.70
2019-05-07T22:13:35.811Z,18.50
2019-05-07T22:16:04.685Z,18.37
2019-05-07T22:18:33.972Z,18.75
2019-05-07T22:21:03.435Z,18.05
2019-05-07T22:23:32.591Z,17.67
2019-05-07T22:26:18.516Z,17.65
2019-05-07T22:28:33.166Z,19.27
2019-05-07T22:31:09.638Z,18.25
2019-05-07T22:33:44.747Z,17.92
2019-05-07T22:36:14.238Z,18.98
2019-05-07T22:38:43.031Z,18.35
2019-05-07T22:41:12.860Z,19.82
2019-05-07T22:43:42.501Z,20.80
2019-05-07T22:46:12.464Z,18.95
2019-05-07T22:48:41.951Z,19.17
2019-05-07T22:51:12.230Z,19.12
2019-05-07T22:53:41.295Z,19.30
2019-05-07T22:56:12.048Z,19.92
2019-05-07T22:58:45.119Z,18.55
2019-05-07T23:01:14.228Z,19.52
2019-05-07T23:03:43.513Z,18.87
2019-05-07T23:06:12.477Z,17.60
2019-05-07T23:08:42.375Z,19.30
2019-05-07T23:11:12.253Z,18.75
2019-05-07T23:13:42.697Z,19.15
2019-05-07T23:16:12.600Z,18.90
2019-05-07T23:18:42.887Z,19.00
2019-05-07T23:21:12.029Z,18.82
2019-05-07T23:23:42.182Z,18.30
2019-05-07T23:26:14.353Z,18.27
2019-05-07T23:28:41.989Z,18.52
2019-05-07T23:31:12.159Z,20.17
2019-05-07T23:33:41.082Z,19.02
2019-05-07T23:36:09.967Z,20.30
2019-05-07T23:38:38.783Z,19.12
2019-05-07T23:41:23.327Z,17.45
2019-05-07T23:44:12.797Z,20.35
2019-05-07T23:46:44.426Z,18.52
2019-05-07T23:49:12.612Z,21.17
2019-05-07T23:51:42.084Z,19.48
2019-05-07T23:54:12.204Z,18.32
2019-05-07T23:56:42.671Z,19.17
2019-05-07T23:59:12.695Z,20.27
